createdAt,value
2023-03-11T00:00:23.801Z,99503.41
2023-03-11T00:02:52.685Z,99503.81
2023-03-11T00:05:26.695Z,99503.22
2023-03-11T00:07:54.055Z,99522.41
2023-03-11T00:10:24.324Z,99506.31
2023-03-11T00:12:51.202Z,99492.72
2023-03-11T00:15:18.364Z,99499.06
2023-03-11T00:17:44.996Z,99485.78
2023-03-11T00:20:18.783Z,99494.19
2023-03-11T00:22:45.572Z,99494.94
2023-03-11T00:25:13.087Z,99494.63
2023-03-11T00:27:39.893Z,99508.50
2023-03-11T00:30:07.456Z,99495.34
2023-03-11T00:32:34.248Z,99512.28
2023-03-11T00:35:01.903Z,99511.84
2023-03-11T00:37:29.459Z,99519.06
2023-03-11T00:39:56.153Z,99534.69
2023-03-11T00:42:22.788Z,99532.41
2023-03-11T00:44:49.473Z,99526.38
2023-03-11T00:47:16.442Z,99537.66
2023-03-11T00:49:43.509Z,99524.53
2023-03-11T00:52:10.145Z,99542.94
2023-03-11T00:54:36.796Z,99546.16
2023-03-11T00:57:03.743Z,99540.81
2023-03-11T00:59:30.574Z,99559.91
2023-03-11T01:01:58.364Z,99544.22
2023-03-11T01:04:25.105Z,99582.00
2023-03-11T01:06:51.761Z,99569.16
2023-03-11T01:09:18.506Z,99565.31
2023-03-11T01:11:45.796Z,99574.81
2023-03-11T01:14:12.942Z,99543.19
2023-03-11T01:16:39.652Z,99550.94
2023-03-11T01:19:06.293Z,99549.50
2023-03-11T01:21:33.099Z,99546.44
2023-03-11T01:23:59.930Z,99550.28
2023-03-11T01:26:26.577Z,99535.22
2023-03-11T01:28:55.843Z,99538.19
2023-03-11T01:31:22.695Z,99534.88
2023-03-11T01:33:49.543Z,99532.28
2023-03-11T01:36:16.519Z,99535.81
2023-03-11T01:38:43.211Z,99536.44
2023-03-11T01:41:12.113Z,99538.53
2023-03-11T01:43:44.938Z,99545.78
2023-03-11T01:46:25.187Z,99555.09
2023-03-11T01:48:52.937Z,99560.31
2023-03-11T01:51:37.210Z,99566.72
2023-03-11T01:54:10.761Z,99572.19
2023-03-11T01:56:39.596Z,99580.66
2023-03-11T01:59:08.932Z,99584.72
2023-03-11T02:01:41.712Z,99593.69
2023-03-11T02:04:09.047Z,99611.41
2023-03-11T02:06:36.121Z,99616.09
2023-03-11T02:09:03.321Z,99613.47
2023-03-11T02:11:31.015Z,99611.19
2023-03-11T02:14:04.403Z,99603.44
2023-03-11T02:16:31.373Z,99599.56
2023-03-11T02:19:04.608Z,99595.69
2023-03-11T02:21:34.402Z,99585.50
2023-03-11T02:24:13.722Z,99587.16
2023-03-11T02:27:01.254Z,99583.34
2023-03-11T02:29:30.309Z,99570.47
2023-03-11T02:32:00.893Z,99579.84
2023-03-11T02:34:31.025Z,99571.00
2023-03-11T02:36:59.790Z,99570.28
2023-03-11T02:40:15.953Z,99573.72
2023-03-11T02:42:42.666Z,99580.88
2023-03-11T02:45:13.541Z,99577.41
2023-03-11T02:47:40.999Z,99586.00
2023-03-11T02:50:13.869Z,99594.19
2023-03-11T02:52:40.698Z,99591.31
2023-03-11T02:55:08.850Z,99583.59
2023-03-11T02:57:35.556Z,99594.41
2023-03-11T03:00:10.628Z,99591.53
2023-03-11T03:02:37.913Z,99598.91
2023-03-11T03:05:05.906Z,99601.56
2023-03-11T03:07:32.959Z,99601.59
2023-03-11T03:10:01.309Z,99603.06
2023-03-11T03:12:28.161Z,99604.81
2023-03-11T03:14:54.802Z,99612.81
2023-03-11T03:17:21.453Z,99609.34
2023-03-11T03:19:48.176Z,99608.91
2023-03-11T03:22:14.885Z,99609.34
2023-03-11T03:24:42.023Z,99607.13
2023-03-11T03:27:08.970Z,99610.38
2023-03-11T03:29:35.819Z,99618.94
2023-03-11T03:32:02.512Z,99618.72
2023-03-11T03:34:29.267Z,99623.00
2023-03-11T03:36:56.154Z,99628.13
2023-03-11T03:39:23.215Z,99636.53
2023-03-11T03:41:51.260Z,99642.63
2023-03-11T03:44:18.292Z,99636.31
2023-03-11T03:46:45.652Z,99637.16
2023-03-11T03:49:12.769Z,99636.94
2023-03-11T03:51:39.657Z,99631.03
2023-03-11T03:54:25.664Z,99630.22
2023-03-11T03:56:52.654Z,99635.50
2023-03-11T03:59:19.449Z,99634.72
2023-03-11T04:01:51.139Z,99634.81
2023-03-11T04:04:19.083Z,99633.63
2023-03-11T04:06:45.835Z,99636.34
2023-03-11T04:09:12.838Z,99639.81
2023-03-11T04:11:39.478Z,99640.00
2023-03-11T04:14:06.692Z,99645.50
2023-03-11T04:16:38.057Z,99643.28
2023-03-11T04:19:09.757Z,99653.53
2023-03-11T04:21:36.539Z,99653.50
2023-03-11T04:24:04.439Z,99657.19
2023-03-11T04:26:35.129Z,99651.66
2023-03-11T04:29:03.010Z,99650.25
2023-03-11T04:31:34.001Z,99650.25
2023-03-11T04:34:04.758Z,99652.47
2023-03-11T04:36:31.651Z,99657.19
2023-03-11T04:38:58.528Z,99662.50
2023-03-11T04:41:28.126Z,99658.41
2023-03-11T04:43:54.757Z,99657.56
2023-03-11T04:46:22.092Z,99663.91
2023-03-11T04:48:49.142Z,99669.59
2023-03-11T04:51:16.100Z,99673.88
2023-03-11T04:53:43.183Z,99671.66
2023-03-11T04:56:11.027Z,99670.03
2023-03-11T04:58:40.025Z,99673.28
2023-03-11T05:01:07.353Z,99674.31
2023-03-11T05:03:34.218Z,99675.16
2023-03-11T05:06:01.212Z,99679.41
2023-03-11T05:08:27.910Z,99678.56
2023-03-11T05:10:54.902Z,99684.28
2023-03-11T05:13:22.777Z,99682.66
2023-03-11T05:15:51.616Z,99680.81
2023-03-11T05:18:18.383Z,99690.22
2023-03-11T05:20:45.873Z,99677.97
2023-03-11T05:23:14.051Z,99687.34
2023-03-11T05:25:41.497Z,99694.47
2023-03-11T05:28:09.672Z,99684.28
2023-03-11T05:30:41.363Z,99696.34
2023-03-11T05:33:08.796Z,99694.69
2023-03-11T05:35:36.304Z,99697.97
2023-03-11T05:38:03.182Z,99701.63
2023-03-11T05:40:30.699Z,99705.72
2023-03-11T05:42:57.447Z,99708.16
2023-03-11T05:45:25.449Z,99712.84
2023-03-11T05:47:53.789Z,99708.56
2023-03-11T05:50:20.842Z,99708.97
2023-03-11T05:52:49.336Z,99703.66
2023-03-11T05:55:16.913Z,99701.00
2023-03-11T05:57:45.368Z,99713.66
2023-03-11T06:00:12.563Z,99707.53
2023-03-11T06:02:45.570Z,99708.16
2023-03-11T06:05:15.536Z,99720.41
2023-03-11T06:07:44.214Z,99719.19
2023-03-11T06:10:11.982Z,99718.75
2023-03-11T06:12:39.799Z,99720.00
2023-03-11T06:15:15.024Z,99713.66
2023-03-11T06:17:42.687Z,99719.78
2023-03-11T06:20:10.175Z,99712.44
2023-03-11T06:22:39.967Z,99725.91
2023-03-11T06:25:08.125Z,99731.81
2023-03-11T06:27:35.124Z,99744.69
2023-03-11T06:30:02.292Z,99743.88
2023-03-11T06:32:34.774Z,99753.84
2023-03-11T06:35:01.510Z,99753.25
2023-03-11T06:37:29.882Z,99748.53
2023-03-11T06:39:57.012Z,99756.09
2023-03-11T06:42:26.637Z,99755.47
2023-03-11T06:44:56.539Z,99756.72
2023-03-11T06:47:23.820Z,99769.75
2023-03-11T06:49:51.477Z,99785.28
2023-03-11T06:52:18.862Z,99783.84
2023-03-11T06:54:46.316Z,99779.56
2023-03-11T06:57:16.115Z,99783.25
2023-03-11T06:59:43.154Z,99779.16
2023-03-11T07:02:14.485Z,99792.63
2023-03-11T07:04:42.611Z,99786.09
2023-03-11T07:07:09.294Z,99793.41
2023-03-11T07:09:36.030Z,99802.22
2023-03-11T07:12:06.414Z,99803.59
2023-03-11T07:14:35.871Z,99812.91
2023-03-11T07:17:02.670Z,99816.19
2023-03-11T07:19:34.969Z,99817.31
2023-03-11T07:22:01.722Z,99820.66
2023-03-11T07:24:28.439Z,99815.25
2023-03-11T07:26:55.147Z,99817.78
2023-03-11T07:29:21.718Z,99822.13
2023-03-11T07:31:49.121Z,99826.84
2023-03-11T07:34:16.560Z,99837.88
2023-03-11T07:36:43.506Z,99848.53
2023-03-11T07:39:15.277Z,99852.72
2023-03-11T07:41:42.695Z,99853.00
2023-03-11T07:44:12.262Z,99857.78
2023-03-11T07:46:38.946Z,99853.03
2023-03-11T07:49:05.540Z,99850.81
2023-03-11T07:51:33.996Z,99848.53
2023-03-11T07:54:01.851Z,99872.94
2023-03-11T07:56:31.750Z,99882.50
2023-03-11T07:59:00.044Z,99877.94
2023-03-11T08:01:30.518Z,99887.00
2023-03-11T08:03:58.825Z,99880.03
2023-03-11T08:06:29.327Z,99884.28
2023-03-11T08:08:55.996Z,99894.63
2023-03-11T08:11:24.345Z,99895.34
2023-03-11T08:13:51.613Z,99902.50
2023-03-11T08:16:21.196Z,99911.34
2023-03-11T08:18:49.209Z,99916.88
2023-03-11T08:21:19.664Z,99920.03
2023-03-11T08:23:46.294Z,99919.09
2023-03-11T08:26:15.621Z,99920.91
2023-03-11T08:28:42.671Z,99914.19
2023-03-11T08:31:17.290Z,99926.50
2023-03-11T08:33:46.510Z,99925.88
2023-03-11T08:36:13.423Z,99919.72
2023-03-11T08:38:40.333Z,99920.72
2023-03-11T08:41:07.488Z,99917.09
2023-03-11T08:43:34.539Z,99922.53
2023-03-11T08:46:02.509Z,99916.09
2023-03-11T08:48:29.438Z,99922.53
2023-03-11T08:50:56.366Z,99929.06
2023-03-11T08:53:23.416Z,99926.75
2023-03-11T08:55:51.662Z,99924.50
2023-03-11T08:58:19.244Z,99926.72
2023-03-11T09:00:46.374Z,99936.13
2023-03-11T09:03:13.631Z,99931.88
2023-03-11T09:05:40.770Z,99931.66
2023-03-11T09:08:07.891Z,99932.91
2023-03-11T09:10:34.523Z,99938.03
2023-03-11T09:13:01.145Z,99946.41
2023-03-11T09:15:28.226Z,99958.66
2023-03-11T09:17:55.728Z,99949.19
2023-03-11T09:20:22.820Z,99954.31
2023-03-11T09:22:49.588Z,99946.09
2023-03-11T09:25:16.397Z,99940.53
2023-03-11T09:27:43.122Z,99930.28
2023-03-11T09:30:10.782Z,99929.38
2023-03-11T09:32:37.601Z,99934.19
2023-03-11T09:35:04.822Z,99940.56
2023-03-11T09:37:31.615Z,99939.03
2023-03-11T09:39:58.257Z,99942.50
2023-03-11T09:42:35.660Z,99939.91
2023-03-11T09:45:28.141Z,99929.97
2023-03-11T09:48:30.276Z,99933.72
2023-03-11T09:51:12.250Z,99946.25
2023-03-11T09:53:38.861Z,99928.91
2023-03-11T09:56:09.013Z,99939.19
2023-03-11T09:58:40.746Z,99927.63
2023-03-11T10:01:18.046Z,99928.09
2023-03-11T10:03:45.675Z,99933.44
2023-03-11T10:06:28.543Z,99942.75
2023-03-11T10:09:15.650Z,99931.22
2023-03-11T10:11:59.779Z,99926.16
2023-03-11T10:14:43.497Z,99938.13
2023-03-11T10:17:24.522Z,99933.31
2023-03-11T10:20:09.800Z,99948.28
2023-03-11T10:22:44.388Z,99950.06
2023-03-11T10:25:22.064Z,99941.00
2023-03-11T10:27:55.698Z,99955.91
2023-03-11T10:30:47.164Z,99952.13
2023-03-11T10:33:22.102Z,99952.00
2023-03-11T10:35:54.246Z,99956.50
2023-03-11T10:38:25.621Z,99950.88
2023-03-11T10:40:56.366Z,99951.22
2023-03-11T10:43:35.016Z,99951.19
2023-03-11T10:46:13.309Z,99953.00
2023-03-11T10:48:39.953Z,99952.06
2023-03-11T10:51:15.862Z,99966.63
2023-03-11T10:53:52.964Z,99957.06
2023-03-11T10:56:34.369Z,99957.91
2023-03-11T10:59:02.920Z,99959.75
2023-03-11T11:01:30.323Z,99963.03
2023-03-11T11:04:00.902Z,99967.97
2023-03-11T11:06:35.908Z,99972.34
2023-03-11T11:09:21.883Z,99963.56
2023-03-11T11:12:15.258Z,99969.19
2023-03-11T11:14:43.855Z,99965.78
2023-03-11T11:17:32.494Z,99971.28
2023-03-11T11:20:01.486Z,99968.09
2023-03-11T11:22:28.728Z,99969.41
2023-03-11T11:24:56.185Z,99964.88
2023-03-11T11:27:27.945Z,99964.41
2023-03-11T11:30:09.674Z,99964.47
2023-03-11T11:32:37.342Z,99962.59
2023-03-11T11:35:10.476Z,99962.41
2023-03-11T11:37:41.826Z,99963.34
2023-03-11T11:40:14.601Z,99963.50
2023-03-11T11:42:46.094Z,99954.16
2023-03-11T11:45:24.123Z,99945.44
2023-03-11T11:47:55.876Z,99947.66
2023-03-11T11:50:36.319Z,99945.03
2023-03-11T11:53:43.879Z,99947.69
2023-03-11T11:56:10.976Z,99958.03
2023-03-11T11:58:40.903Z,99953.22
2023-03-11T12:01:39.802Z,99958.56
2023-03-11T12:04:45.338Z,99948.22
2023-03-11T12:07:12.121Z,99946.06
2023-03-11T12:10:23.223Z,99944.88
2023-03-11T12:13:21.994Z,99944.25
2023-03-11T12:16:04.908Z,99939.84
2023-03-11T12:18:41.638Z,99940.34
2023-03-11T12:21:11.595Z,99943.78
2023-03-11T12:24:02.895Z,99936.88
2023-03-11T12:26:36.821Z,99938.81
2023-03-11T12:29:33.780Z,99939.09
2023-03-11T12:32:02.538Z,99930.16
2023-03-11T12:34:31.330Z,99936.00
2023-03-11T12:37:03.464Z,99929.81
2023-03-11T12:39:34.682Z,99940.53
2023-03-11T12:42:10.528Z,99942.44
2023-03-11T12:44:39.037Z,99939.09
2023-03-11T12:47:08.710Z,99941.78
2023-03-11T12:49:36.621Z,99936.00
2023-03-11T12:52:18.585Z,99928.47
2023-03-11T12:55:06.428Z,99919.63
2023-03-11T12:57:48.453Z,99925.81
2023-03-11T13:00:40.729Z,99913.81
2023-03-11T13:03:34.819Z,99923.47
2023-03-11T13:06:29.484Z,99925.34
2023-03-11T13:08:58.220Z,99921.97
2023-03-11T13:11:34.206Z,99925.22
2023-03-11T13:14:36.888Z,99930.69
2023-03-11T13:17:27.787Z,99928.59
2023-03-11T13:19:59.050Z,99927.44
2023-03-11T13:22:44.524Z,99936.50
2023-03-11T13:25:31.650Z,99950.44
2023-03-11T13:28:39.586Z,99957.66
2023-03-11T13:31:24.967Z,99950.91
2023-03-11T13:33:56.574Z,99949.16
2023-03-11T13:36:48.866Z,99943.25
2023-03-11T13:39:43.267Z,99949.53
2023-03-11T13:42:35.568Z,99955.47
2023-03-11T13:45:04.970Z,99954.25
2023-03-11T13:47:33.606Z,99951.59
2023-03-11T13:50:17.675Z,99948.50
2023-03-11T13:52:49.032Z,99940.56
2023-03-11T13:55:23.764Z,99949.06
2023-03-11T13:57:55.825Z,99944.53
2023-03-11T14:00:30.175Z,99942.56
2023-03-11T14:03:01.188Z,99948.59
2023-03-11T14:05:32.810Z,99943.59
2023-03-11T14:08:23.978Z,99955.94
2023-03-11T14:11:00.848Z,99962.09
2023-03-11T14:13:32.770Z,99953.09
2023-03-11T14:16:10.464Z,99963.38
2023-03-11T14:18:43.099Z,99965.44
2023-03-11T14:21:19.586Z,99958.00
2023-03-11T14:23:48.758Z,99962.91
2023-03-11T14:26:19.801Z,99971.38
2023-03-11T14:28:55.476Z,99968.03
2023-03-11T14:31:24.548Z,99981.63
2023-03-11T14:34:04.224Z,99984.28
2023-03-11T14:36:42.409Z,99985.34
2023-03-11T14:39:33.690Z,99992.09
2023-03-11T14:42:23.898Z,99988.59
2023-03-11T14:45:12.845Z,99994.88
2023-03-11T14:48:00.901Z,99987.41
2023-03-11T14:50:31.783Z,99991.38
2023-03-11T14:53:07.016Z,99987.44
2023-03-11T14:55:40.333Z,99981.72
2023-03-11T14:58:23.876Z,99984.28
2023-03-11T15:00:58.896Z,99970.63
2023-03-11T15:03:31.723Z,99973.75
2023-03-11T15:06:17.756Z,99967.06
2023-03-11T15:08:48.599Z,99968.78
2023-03-11T15:11:15.519Z,99969.22
2023-03-11T15:13:47.330Z,99965.78
2023-03-11T15:16:33.948Z,99970.47
2023-03-11T15:19:27.212Z,99975.19
2023-03-11T15:21:58.416Z,99977.50
2023-03-11T15:24:29.137Z,99981.38
2023-03-11T15:27:03.364Z,99982.44
2023-03-11T15:29:32.469Z,99975.13
2023-03-11T15:32:00.078Z,99976.16
2023-03-11T15:34:32.452Z,99976.72
2023-03-11T15:37:04.103Z,99987.31
2023-03-11T15:39:31.162Z,99985.31
2023-03-11T15:42:03.638Z,99981.84
2023-03-11T15:44:48.546Z,99992.78
2023-03-11T15:47:17.691Z,99996.94
2023-03-11T15:49:44.904Z,99995.44
2023-03-11T15:52:12.611Z,99994.03
2023-03-11T15:54:39.826Z,99990.25
2023-03-11T15:57:10.614Z,99993.44
2023-03-11T15:59:38.599Z,99991.75
2023-03-11T16:02:30.969Z,99999.16
2023-03-11T16:04:58.793Z,99998.38
2023-03-11T16:07:38.545Z,100008.25
2023-03-11T16:10:11.533Z,100008.34
2023-03-11T16:12:39.255Z,100010.28
2023-03-11T16:15:07.459Z,100016.03
2023-03-11T16:17:48.365Z,100022.22
2023-03-11T16:20:16.323Z,100016.13
2023-03-11T16:22:43.120Z,100024.38
2023-03-11T16:25:23.576Z,100024.41
2023-03-11T16:27:52.862Z,100033.19
2023-03-11T16:30:20.302Z,100032.03
2023-03-11T16:32:47.120Z,100033.13
2023-03-11T16:35:14.107Z,100040.91
2023-03-11T16:37:42.775Z,100032.25
2023-03-11T16:40:15.307Z,100030.44
2023-03-11T16:42:43.790Z,100028.88
2023-03-11T16:45:13.351Z,100033.78
2023-03-11T16:47:40.018Z,100028.44
2023-03-11T16:50:07.752Z,100031.84
2023-03-11T16:52:34.524Z,100046.63
2023-03-11T16:55:01.317Z,100049.72
2023-03-11T16:57:28.503Z,100048.69
2023-03-11T16:59:55.276Z,100054.75
2023-03-11T17:02:24.393Z,100050.31
2023-03-11T17:04:51.457Z,100068.56
2023-03-11T17:07:18.121Z,100067.50
2023-03-11T17:09:44.866Z,100065.16
2023-03-11T17:12:15.603Z,100064.38
2023-03-11T17:14:42.408Z,100067.84
2023-03-11T17:17:09.144Z,100069.69
2023-03-11T17:19:35.837Z,100075.44
2023-03-11T17:22:02.800Z,100070.25
2023-03-11T17:24:29.921Z,100081.75
2023-03-11T17:26:56.875Z,100090.84
2023-03-11T17:29:23.612Z,100079.72
2023-03-11T17:31:50.285Z,100079.69
2023-03-11T17:34:16.996Z,100088.28
2023-03-11T17:36:43.672Z,100093.69
2023-03-11T17:39:10.398Z,100094.88
2023-03-11T17:41:37.455Z,100094.78
2023-03-11T17:44:04.681Z,100091.72
2023-03-11T17:46:31.354Z,100091.06
2023-03-11T17:48:58.151Z,100101.81
2023-03-11T17:51:26.165Z,100101.53
2023-03-11T17:53:54.941Z,100106.94
2023-03-11T17:56:22.455Z,100106.75
2023-03-11T17:58:50.568Z,100113.94
2023-03-11T18:01:22.913Z,100112.53
2023-03-11T18:03:49.983Z,100118.28
2023-03-11T18:06:18.771Z,100110.28
2023-03-11T18:08:45.941Z,100114.75
2023-03-11T18:11:18.929Z,100119.94
2023-03-11T18:13:46.266Z,100125.81
2023-03-11T18:16:16.112Z,100130.53
2023-03-11T18:18:43.694Z,100127.28
2023-03-11T18:21:16.421Z,100127.66
2023-03-11T18:23:43.272Z,100125.81
2023-03-11T18:26:12.561Z,100128.91
2023-03-11T18:28:39.482Z,100135.44
2023-03-11T18:31:12.267Z,100138.44
2023-03-11T18:33:40.052Z,100137.50
2023-03-11T18:36:16.555Z,100135.66
2023-03-11T18:38:44.003Z,100131.34
2023-03-11T18:41:11.059Z,100134.94
2023-03-11T18:43:37.970Z,100132.06
2023-03-11T18:46:10.136Z,100131.72
2023-03-11T18:48:37.238Z,100140.09
2023-03-11T18:51:04.618Z,100134.00
2023-03-11T18:53:31.275Z,100131.94
2023-03-11T18:56:24.124Z,100134.03
2023-03-11T18:58:50.937Z,100134.00
2023-03-11T19:01:20.266Z,100133.44
2023-03-11T19:03:55.990Z,100136.91
2023-03-11T19:06:24.686Z,100138.31
2023-03-11T19:08:51.893Z,100139.97
2023-03-11T19:11:20.595Z,100145.28
2023-03-11T19:13:48.219Z,100145.34
2023-03-11T19:16:21.492Z,100143.50
2023-03-11T19:18:48.359Z,100150.06
2023-03-11T19:21:16.146Z,100155.19
2023-03-11T19:23:44.056Z,100156.00
2023-03-11T19:26:11.156Z,100159.78
2023-03-11T19:28:37.840Z,100158.75
2023-03-11T19:31:05.511Z,100157.31
2023-03-11T19:33:32.599Z,100155.25
2023-03-11T19:36:05.869Z,100155.94
2023-03-11T19:38:32.997Z,100161.38
2023-03-11T19:41:05.623Z,100155.72
2023-03-11T19:43:33.654Z,100155.09
2023-03-11T19:46:00.617Z,100159.81
2023-03-11T19:48:27.550Z,100162.94
2023-03-11T19:50:54.876Z,100166.63
2023-03-11T19:53:23.277Z,100166.19
2023-03-11T19:55:52.201Z,100165.84
2023-03-11T19:58:20.082Z,100167.41
2023-03-11T20:00:46.769Z,100171.94
2023-03-11T20:03:14.913Z,100178.75
2023-03-11T20:05:44.020Z,100174.81
2023-03-11T20:08:14.408Z,100189.28
2023-03-11T20:10:43.554Z,100188.34
2023-03-11T20:13:11.409Z,100188.94
2023-03-11T20:15:38.368Z,100193.88
2023-03-11T20:18:06.138Z,100199.25
2023-03-11T20:20:34.481Z,100191.69
2023-03-11T20:23:02.235Z,100199.19
2023-03-11T20:25:32.465Z,100199.03
2023-03-11T20:28:00.570Z,100203.38
2023-03-11T20:30:28.717Z,100199.81
2023-03-11T20:32:55.817Z,100204.16
2023-03-11T20:35:23.440Z,100203.56
2023-03-11T20:37:50.666Z,100201.50
2023-03-11T20:40:18.787Z,100197.56
2023-03-11T20:42:47.219Z,100202.91
2023-03-11T20:45:16.243Z,100193.56
2023-03-11T20:47:44.337Z,100199.69
2023-03-11T20:50:12.797Z,100206.19
2023-03-11T20:52:39.682Z,100214.81
2023-03-11T20:55:08.322Z,100218.31
2023-03-11T20:57:35.623Z,100223.03
2023-03-11T21:00:07.791Z,100224.66
2023-03-11T21:02:34.767Z,100224.22
2023-03-11T21:05:01.887Z,100226.69
2023-03-11T21:07:29.853Z,100228.97
2023-03-11T21:09:57.874Z,100222.59
2023-03-11T21:12:25.860Z,100222.22
2023-03-11T21:14:52.719Z,100222.63
2023-03-11T21:17:20.057Z,100231.59
2023-03-11T21:19:46.881Z,100219.75
2023-03-11T21:22:13.796Z,100222.81
2023-03-11T21:24:40.408Z,100225.50
2023-03-11T21:27:07.313Z,100225.69
2023-03-11T21:29:34.034Z,100226.28
2023-03-11T21:32:00.806Z,100227.94
2023-03-11T21:34:27.749Z,100229.38
2023-03-11T21:36:54.511Z,100226.72
2023-03-11T21:39:21.812Z,100228.13
2023-03-11T21:41:48.783Z,100228.75
2023-03-11T21:44:15.580Z,100232.63
2023-03-11T21:46:42.443Z,100219.50
2023-03-11T21:49:09.464Z,100222.34
2023-03-11T21:51:36.466Z,100225.41
2023-03-11T21:54:05.345Z,100236.72
2023-03-11T21:56:32.181Z,100223.84
2023-03-11T21:58:59.291Z,100214.81
2023-03-11T22:01:26.267Z,100217.03
2023-03-11T22:03:53.572Z,100220.13
2023-03-11T22:06:20.309Z,100222.59
2023-03-11T22:08:47.180Z,100223.56
2023-03-11T22:11:18.473Z,100224.59
2023-03-11T22:13:46.928Z,100225.59
2023-03-11T22:16:14.046Z,100228.47
2023-03-11T22:18:41.577Z,100226.38
2023-03-11T22:21:10.431Z,100226.41
2023-03-11T22:23:37.596Z,100228.19
2023-03-11T22:26:04.491Z,100230.22
2023-03-11T22:28:31.302Z,100230.66
2023-03-11T22:30:57.976Z,100227.34
2023-03-11T22:33:25.430Z,100231.44
2023-03-11T22:35:57.113Z,100235.00
2023-03-11T22:38:23.983Z,100228.66
2023-03-11T22:40:51.041Z,100222.94
2023-03-11T22:43:17.854Z,100239.25
2023-03-11T22:45:45.526Z,100237.38
2023-03-11T22:48:12.849Z,100240.03
2023-03-11T22:50:41.651Z,100238.66
2023-03-11T22:53:08.623Z,100229.19
2023-03-11T22:55:39.976Z,100230.97
2023-03-11T22:58:06.861Z,100230.16
2023-03-11T23:00:34.312Z,100229.56
2023-03-11T23:03:01.195Z,100230.41
2023-03-11T23:05:28.712Z,100227.91
2023-03-11T23:07:55.794Z,100236.50
2023-03-11T23:10:23.744Z,100231.03
2023-03-11T23:12:50.995Z,100231.25
2023-03-11T23:15:19.086Z,100237.44
2023-03-11T23:17:46.029Z,100237.94
2023-03-11T23:20:16.176Z,100235.88
2023-03-11T23:22:43.051Z,100245.59
2023-03-11T23:25:14.054Z,100250.66
2023-03-11T23:27:42.562Z,100248.16
2023-03-11T23:30:11.725Z,100245.78
2023-03-11T23:32:38.697Z,100248.94
2023-03-11T23:35:06.054Z,100247.66
2023-03-11T23:37:32.752Z,100238.94
2023-03-11T23:39:59.586Z,100238.19
2023-03-11T23:42:26.572Z,100235.19
2023-03-11T23:44:53.989Z,100242.63
2023-03-11T23:47:21.146Z,100236.09
2023-03-11T23:49:47.764Z,100234.44
2023-03-11T23:52:14.494Z,100244.16
2023-03-11T23:54:41.196Z,100234.31
2023-03-11T23:57:08.162Z,100236.44
2023-03-11T23:59:35.176Z,100231.25
